Time;durP1;ratioP1;P1;durP2;ratioP2;P2;SDS_P1;SDS_P2;PMS_P1;PMS_P2;Temp;Humidity;BMP_temperature;BMP_pressure;BME280_temperature;BME280_humidity;BME280_pressure;Samples;Min_cycle;Max_cycle;Signal;HPM_P1;HPM_P2
2021/07/20 00:00:25;;;;;;;4.65;4.13;;;;;;;21.65;72.13;100685.78;;;;-61
2021/07/20 00:03:25;;;;;;;5.05;4.17;;;;;;;21.64;72.03;100689.06;;;;-62
2021/07/20 00:06:25;;;;;;;5.10;4.35;;;;;;;21.64;72.14;100685.86;;;;-62
2021/07/20 00:09:25;;;;;;;4.95;4.45;;;;;;;21.63;72.08;100686.03;;;;-62
2021/07/20 00:12:25;;;;;;;4.91;4.41;;;;;;;21.62;72.12;100686.61;;;;-61
2021/07/20 00:15:25;;;;;;;4.54;4.14;;;;;;;21.63;72.20;100685.30;;;;-62
2021/07/20 00:18:25;;;;;;;5.07;4.16;;;;;;;21.62;72.13;100684.81;;;;-61
2021/07/20 00:21:25;;;;;;;4.63;4.21;;;;;;;21.62;72.15;100684.23;;;;-60
2021/07/20 00:24:25;;;;;;;5.34;4.39;;;;;;;21.61;72.05;100687.17;;;;-63
2021/07/20 00:27:25;;;;;;;4.95;4.45;;;;;;;21.61;72.18;100689.05;;;;-62
2021/07/20 00:30:25;;;;;;;4.83;4.26;;;;;;;21.60;72.13;100688.73;;;;-61
2021/07/20 00:33:25;;;;;;;4.95;4.25;;;;;;;21.59;72.21;100687.00;;;;-62
2021/07/20 00:36:25;;;;;;;5.02;4.37;;;;;;;21.59;72.02;100688.30;;;;-61
2021/07/20 00:39:25;;;;;;;4.63;4.23;;;;;;;21.59;72.14;100682.85;;;;-62
2021/07/20 00:42:25;;;;;;;4.40;4.00;;;;;;;21.59;72.11;100684.80;;;;-61
2021/07/20 00:45:25;;;;;;;4.73;4.23;;;;;;;21.58;72.19;100680.90;;;;-61
2021/07/20 00:48:25;;;;;;;4.80;4.30;;;;;;;21.58;72.18;100682.42;;;;-62
2021/07/20 00:51:25;;;;;;;4.63;4.11;;;;;;;21.58;72.05;100681.28;;;;-62
2021/07/20 00:54:25;;;;;;;5.47;4.63;;;;;;;21.57;72.09;100686.02;;;;-62
2021/07/20 00:57:25;;;;;;;5.67;4.49;;;;;;;21.57;72.13;100682.75;;;;-62
2021/07/20 01:00:25;;;;;;;4.70;4.25;;;;;;;21.56;72.14;100677.71;;;;-62
2021/07/20 01:03:25;;;;;;;5.02;4.47;;;;;;;21.57;72.13;100676.65;;;;-61
2021/07/20 01:06:25;;;;;;;5.19;4.57;;;;;;;21.56;72.06;100671.59;;;;-61
2021/07/20 01:09:25;;;;;;;5.11;4.46;;;;;;;21.56;72.12;100670.67;;;;-61
2021/07/20 01:12:25;;;;;;;5.07;4.53;;;;;;;21.56;72.09;100670.02;;;;-62
2021/07/20 01:15:25;;;;;;;4.68;4.01;;;;;;;21.55;72.06;100670.69;;;;-62
2021/07/20 01:18:25;;;;;;;5.05;4.35;;;;;;;21.54;72.09;100665.64;;;;-63
2021/07/20 01:21:25;;;;;;;5.01;4.51;;;;;;;21.55;71.99;100666.61;;;;-62
2021/07/20 01:24:25;;;;;;;5.37;4.45;;;;;;;21.55;72.11;100671.59;;;;-61
2021/07/20 01:27:25;;;;;;;4.91;4.41;;;;;;;21.54;72.08;100666.78;;;;-63
2021/07/20 01:30:25;;;;;;;5.17;4.67;;;;;;;21.54;72.06;100670.52;;;;-62
2021/07/20 01:33:25;;;;;;;4.66;4.23;;;;;;;21.54;72.01;100668.31;;;;-62
2021/07/20 01:36:25;;;;;;;5.03;4.53;;;;;;;21.54;72.05;100665.45;;;;-60
2021/07/20 01:39:25;;;;;;;5.77;4.61;;;;;;;21.53;72.03;100664.56;;;;-61
2021/07/20 01:42:25;;;;;;;4.85;4.35;;;;;;;21.53;72.07;100666.52;;;;-63
2021/07/20 01:45:25;;;;;;;4.67;4.17;;;;;;;21.53;72.03;100667.58;;;;-62
2021/07/20 01:48:25;;;;;;;4.77;4.33;;;;;;;21.52;72.05;100668.82;;;;-61
2021/07/20 01:51:25;;;;;;;6.21;4.59;;;;;;;21.52;72.02;100668.33;;;;-61
2021/07/20 01:54:25;;;;;;;4.95;4.45;;;;;;;21.51;72.01;100669.05;;;;-62
2021/07/20 01:57:25;;;;;;;5.33;4.44;;;;;;;21.51;72.04;100672.97;;;;-62
2021/07/20 02:00:25;;;;;;;5.15;4.57;;;;;;;21.51;72.03;100673.78;;;;-61
2021/07/20 02:03:33;;;;;;;5.53;4.38;;;;;;;21.50;72.05;100672.73;;;;-61
2021/07/20 02:09:25;;;;;;;5.20;4.69;;;;;;;21.50;72.04;100674.53;;;;-62
2021/07/20 02:12:32;;;;;;;5.01;4.51;;;;;;;21.49;72.10;100671.50;;;;-62
2021/07/20 02:15:25;;;;;;;5.28;4.38;;;;;;;21.49;72.05;100670.19;;;;-62
2021/07/20 02:18:25;;;;;;;5.20;4.51;;;;;;;21.49;72.04;100672.31;;;;-62
2021/07/20 02:21:25;;;;;;;5.26;4.76;;;;;;;21.49;72.06;100671.17;;;;-62
2021/07/20 02:24:25;;;;;;;4.94;4.44;;;;;;;21.48;71.96;100668.89;;;;-63
2021/07/20 02:27:25;;;;;;;4.99;4.49;;;;;;;21.47;72.02;100667.81;;;;-61
2021/07/20 02:30:25;;;;;;;5.01;4.51;;;;;;;21.47;71.98;100667.00;;;;-62
2021/07/20 02:33:25;;;;;;;4.93;4.43;;;;;;;21.47;72.01;100668.39;;;;-63
2021/07/20 02:36:25;;;;;;;4.95;4.47;;;;;;;21.47;72.06;100672.30;;;;-63
2021/07/20 02:39:25;;;;;;;4.91;4.43;;;;;;;21.46;72.01;100671.25;;;;-63
2021/07/20 02:42:25;;;;;;;5.17;4.66;;;;;;;21.46;72.03;100666.04;;;;-62
2021/07/20 02:45:25;;;;;;;4.76;4.31;;;;;;;21.45;72.03;100664.55;;;;-61
2021/07/20 02:48:25;;;;;;;5.68;4.58;;;;;;;21.46;72.01;100667.27;;;;-62
2021/07/20 02:51:25;;;;;;;4.87;4.39;;;;;;;21.45;72.11;100663.91;;;;-62
2021/07/20 02:54:25;;;;;;;5.11;4.61;;;;;;;21.45;72.13;100662.92;;;;-62
2021/07/20 02:57:25;;;;;;;5.19;4.69;;;;;;;21.45;72.03;100660.72;;;;-61
2021/07/20 03:00:25;;;;;;;5.00;4.53;;;;;;;21.45;72.05;100660.56;;;;-61
2021/07/20 03:03:25;;;;;;;5.28;4.51;;;;;;;21.44;72.01;100657.39;;;;-61
2021/07/20 03:06:25;;;;;;;5.17;4.67;;;;;;;21.44;72.03;100660.81;;;;-61
2021/07/20 03:09:25;;;;;;;5.31;4.58;;;;;;;21.44;72.02;100658.78;;;;-61
2021/07/20 03:12:25;;;;;;;4.85;4.39;;;;;;;21.44;72.04;100660.98;;;;-61
2021/07/20 03:15:25;;;;;;;4.89;4.39;;;;;;;21.44;72.01;100662.28;;;;-62
2021/07/20 03:18:25;;;;;;;4.80;4.40;;;;;;;21.44;72.04;100663.75;;;;-64
2021/07/20 03:21:25;;;;;;;4.96;4.46;;;;;;;21.42;71.96;100664.72;;;;-61
2021/07/20 03:24:25;;;;;;;4.98;4.43;;;;;;;21.43;71.99;100667.64;;;;-61
2021/07/20 03:27:28;;;;;;;5.01;4.26;;;;;;;21.43;71.95;100671.16;;;;-62
2021/07/20 03:30:25;;;;;;;5.17;4.53;;;;;;;21.42;71.99;100669.70;;;;-61
2021/07/20 03:33:25;;;;;;;4.83;4.37;;;;;;;21.42;72.07;100670.35;;;;-61
2021/07/20 03:36:26;;;;;;;5.13;4.63;;;;;;;21.42;72.08;100673.34;;;;-62
2021/07/20 03:39:25;;;;;;;5.24;4.65;;;;;;;21.42;72.00;100672.45;;;;-62
2021/07/20 03:42:25;;;;;;;5.02;4.52;;;;;;;21.41;72.00;100675.94;;;;-61
2021/07/20 03:45:25;;;;;;;5.10;4.60;;;;;;;21.41;71.96;100677.23;;;;-62
2021/07/20 03:48:25;;;;;;;4.92;4.44;;;;;;;21.41;72.06;100681.80;;;;-61
2021/07/20 03:51:25;;;;;;;5.22;4.72;;;;;;;21.40;72.00;100684.42;;;;-61
2021/07/20 03:54:25;;;;;;;5.35;4.83;;;;;;;21.40;72.05;100684.91;;;;-62
2021/07/20 03:57:25;;;;;;;4.99;4.49;;;;;;;21.40;72.05;100687.52;;;;-62
2021/07/20 04:00:25;;;;;;;4.62;4.22;;;;;;;21.40;72.07;100687.77;;;;-62
2021/07/20 04:03:25;;;;;;;5.12;4.62;;;;;;;21.40;72.00;100686.95;;;;-61
2021/07/20 04:06:25;;;;;;;5.09;4.59;;;;;;;21.39;71.96;100687.58;;;;-61
2021/07/20 04:09:25;;;;;;;4.91;4.42;;;;;;;21.39;72.10;100691.20;;;;-61
2021/07/20 04:12:25;;;;;;;4.98;4.48;;;;;;;21.39;72.02;100690.12;;;;-61
2021/07/20 04:15:25;;;;;;;4.84;4.32;;;;;;;21.39;72.02;100690.59;;;;-63
2021/07/20 04:18:25;;;;;;;4.93;4.45;;;;;;;21.39;71.99;100692.80;;;;-62
2021/07/20 04:21:25;;;;;;;4.59;4.19;;;;;;;21.38;72.04;100694.93;;;;-61
2021/07/20 04:24:25;;;;;;;11.87;7.81;;;;;;;21.35;68.57;100693.95;;;;-57
2021/07/20 04:27:25;;;;;;;13.56;10.21;;;;;;;21.20;64.73;100691.94;;;;-55
2021/07/20 04:30:25;;;;;;;13.27;10.75;;;;;;;21.09;64.33;100694.04;;;;-60
2021/07/20 04:33:26;;;;;;;16.06;10.88;;;;;;;20.89;64.00;100695.17;;;;-61
2021/07/20 04:36:25;;;;;;;12.96;10.12;;;;;;;20.72;64.14;100702.11;;;;-54
2021/07/20 04:39:25;;;;;;;15.49;11.34;;;;;;;20.67;64.54;100705.89;;;;-55
2021/07/20 04:42:25;;;;;;;18.15;11.22;;;;;;;20.54;64.60;100705.39;;;;-57
2021/07/20 04:45:25;;;;;;;15.65;10.99;;;;;;;20.47;64.75;100706.66;;;;-59
2021/07/20 04:48:25;;;;;;;16.70;11.14;;;;;;;20.41;64.53;100705.73;;;;-56
2021/07/20 04:51:25;;;;;;;14.16;11.11;;;;;;;20.33;64.59;100705.10;;;;-56
2021/07/20 04:54:25;;;;;;;16.85;10.81;;;;;;;20.24;64.93;100708.63;;;;-57
2021/07/20 04:57:25;;;;;;;15.02;11.40;;;;;;;20.19;65.00;100711.51;;;;-58
2021/07/20 05:00:25;;;;;;;14.17;11.17;;;;;;;20.11;65.92;100712.13;;;;-54
2021/07/20 05:03:25;;;;;;;13.03;10.51;;;;;;;20.17;66.34;100718.44;;;;-54
2021/07/20 05:06:25;;;;;;;13.67;10.39;;;;;;;20.24;66.72;100724.50;;;;-52
2021/07/20 05:09:25;;;;;;;13.01;9.77;;;;;;;20.32;66.77;100729.20;;;;-54
2021/07/20 05:12:25;;;;;;;13.01;10.09;;;;;;;20.38;67.12;100733.23;;;;-52
2021/07/20 05:15:25;;;;;;;12.27;9.89;;;;;;;20.42;67.20;100730.17;;;;-52
2021/07/20 05:18:25;;;;;;;12.55;9.67;;;;;;;20.46;67.41;100731.74;;;;-53
2021/07/20 05:21:25;;;;;;;11.01;9.43;;;;;;;20.50;67.58;100732.67;;;;-57
2021/07/20 05:24:25;;;;;;;14.51;10.33;;;;;;;20.53;67.74;100734.63;;;;-56
2021/07/20 05:27:25;;;;;;;12.28;9.57;;;;;;;20.55;67.92;100737.98;;;;-57
2021/07/20 05:30:25;;;;;;;11.51;9.12;;;;;;;20.58;67.97;100737.12;;;;-57
2021/07/20 05:33:25;;;;;;;12.70;9.55;;;;;;;20.60;68.07;100740.39;;;;-58
2021/07/20 05:36:27;;;;;;;12.29;9.71;;;;;;;20.61;68.19;100739.11;;;;-57
2021/07/20 05:39:26;;;;;;;10.96;9.10;;;;;;;20.63;68.28;100733.50;;;;-56
2021/07/20 05:42:25;;;;;;;12.53;9.61;;;;;;;20.65;68.41;100734.22;;;;-57
2021/07/20 05:45:25;;;;;;;10.71;9.07;;;;;;;20.66;68.43;100735.30;;;;-57
2021/07/20 05:48:25;;;;;;;12.71;9.39;;;;;;;20.67;68.50;100736.78;;;;-58
2021/07/20 05:51:25;;;;;;;12.53;9.46;;;;;;;20.68;68.66;100737.10;;;;-56
2021/07/20 05:54:25;;;;;;;11.67;9.16;;;;;;;20.69;68.67;100741.44;;;;-57
2021/07/20 05:57:25;;;;;;;10.91;9.09;;;;;;;20.69;68.76;100737.45;;;;-57
2021/07/20 06:00:25;;;;;;;10.79;9.05;;;;;;;20.71;68.78;100740.23;;;;-57
2021/07/20 06:03:26;;;;;;;11.02;9.41;;;;;;;20.72;68.86;100744.38;;;;-57
2021/07/20 06:06:25;;;;;;;9.83;8.81;;;;;;;20.73;68.93;100745.52;;;;-58
2021/07/20 06:09:25;;;;;;;11.51;8.91;;;;;;;20.74;69.00;100745.45;;;;-57
2021/07/20 06:12:25;;;;;;;11.08;9.01;;;;;;;20.74;68.99;100745.53;;;;-58
2021/07/20 06:15:25;;;;;;;11.20;8.63;;;;;;;20.75;69.13;100751.06;;;;-57
2021/07/20 06:18:25;;;;;;;10.65;8.96;;;;;;;20.76;69.17;100749.86;;;;-57
2021/07/20 06:21:25;;;;;;;10.57;8.79;;;;;;;20.76;69.21;100749.37;;;;-56
2021/07/20 06:24:25;;;;;;;10.54;8.75;;;;;;;20.77;69.23;100750.09;;;;-56
2021/07/20 06:27:25;;;;;;;10.58;8.85;;;;;;;20.77;69.28;100751.23;;;;-55
2021/07/20 06:30:25;;;;;;;10.73;8.91;;;;;;;20.77;69.35;100752.89;;;;-55
2021/07/20 06:33:25;;;;;;;10.61;8.80;;;;;;;20.79;69.34;100759.31;;;;-58
2021/07/20 06:36:26;;;;;;;9.59;8.30;;;;;;;20.79;69.42;100757.69;;;;-57
2021/07/20 06:39:25;;;;;;;8.93;8.01;;;;;;;20.79;69.44;100757.20;;;;-57
2021/07/20 06:42:25;;;;;;;8.97;8.07;;;;;;;20.79;69.49;100761.43;;;;-60
2021/07/20 06:45:25;;;;;;;9.81;8.31;;;;;;;20.79;69.54;100761.02;;;;-59
2021/07/20 06:48:26;;;;;;;10.07;8.47;;;;;;;20.79;69.56;100762.08;;;;-60
2021/07/20 06:51:25;;;;;;;9.90;8.85;;;;;;;20.80;69.60;100761.78;;;;-60
2021/07/20 06:54:25;;;;;;;10.54;8.37;;;;;;;20.80;69.67;100764.71;;;;-53
2021/07/20 06:57:25;;;;;;;9.61;8.40;;;;;;;20.80;69.69;100759.91;;;;-53
2021/07/20 07:00:25;;;;;;;9.91;8.32;;;;;;;20.81;69.76;100763.07;;;;-53
2021/07/20 07:03:25;;;;;;;9.26;8.19;;;;;;;20.82;69.74;100763.99;;;;-53
2021/07/20 07:06:25;;;;;;;9.73;8.33;;;;;;;20.82;69.74;100767.48;;;;-53
2021/07/20 07:09:25;;;;;;;8.87;7.93;;;;;;;20.83;69.75;100769.03;;;;-51
2021/07/20 07:12:25;;;;;;;10.65;8.15;;;;;;;20.83;69.77;100765.94;;;;-51
2021/07/20 07:15:25;;;;;;;8.98;8.05;;;;;;;20.84;69.76;100765.30;;;;-51
2021/07/20 07:18:25;;;;;;;8.99;7.90;;;;;;;20.84;69.78;100767.42;;;;-51
2021/07/20 07:21:25;;;;;;;9.24;7.91;;;;;;;20.84;69.76;100769.45;;;;-51
2021/07/20 07:24:25;;;;;;;8.77;7.86;;;;;;;20.85;69.76;100768.39;;;;-56
2021/07/20 07:27:25;;;;;;;8.64;7.74;;;;;;;20.86;69.86;100769.64;;;;-54
2021/07/20 07:30:25;;;;;;;8.45;7.57;;;;;;;20.85;69.79;100771.08;;;;-51
2021/07/20 07:33:25;;;;;;;9.39;8.20;;;;;;;20.85;69.87;100769.36;;;;-51
2021/07/20 07:36:25;;;;;;;8.51;7.60;;;;;;;20.87;69.84;100772.80;;;;-51
2021/07/20 07:39:25;;;;;;;8.58;7.68;;;;;;;20.86;69.87;100772.40;;;;-51
2021/07/20 07:42:25;;;;;;;8.89;7.59;;;;;;;20.87;69.90;100773.13;;;;-52
2021/07/20 07:45:25;;;;;;;8.50;7.53;;;;;;;20.87;69.93;100768.00;;;;-51
2021/07/20 07:48:25;;;;;;;8.61;7.47;;;;;;;20.87;69.86;100772.06;;;;-51
2021/07/20 07:51:25;;;;;;;8.41;7.51;;;;;;;20.88;69.93;100772.82;;;;-51
2021/07/20 07:54:25;;;;;;;8.49;7.60;;;;;;;20.88;69.93;100772.09;;;;-52
2021/07/20 07:57:25;;;;;;;9.38;7.47;;;;;;;20.88;69.94;100770.78;;;;-51
2021/07/20 08:00:25;;;;;;;8.59;7.69;;;;;;;20.89;69.91;100767.19;;;;-51
2021/07/20 08:03:25;;;;;;;8.05;7.20;;;;;;;20.89;69.92;100764.91;;;;-51
2021/07/20 08:06:26;;;;;;;8.59;7.59;;;;;;;20.90;70.01;100767.95;;;;-52
2021/07/20 08:09:25;;;;;;;8.27;7.40;;;;;;;20.90;69.95;100765.83;;;;-51
2021/07/20 08:12:25;;;;;;;8.44;7.54;;;;;;;20.90;69.99;100771.78;;;;-52
2021/07/20 08:15:25;;;;;;;8.27;7.38;;;;;;;20.90;69.99;100773.16;;;;-51
2021/07/20 08:18:25;;;;;;;7.87;7.07;;;;;;;20.91;69.96;100771.45;;;;-51
2021/07/20 08:21:27;;;;;;;8.28;7.39;;;;;;;20.91;69.99;100777.47;;;;-52
2021/07/20 08:24:25;;;;;;;8.05;7.25;;;;;;;20.91;69.98;100776.58;;;;-51
2021/07/20 08:27:25;;;;;;;8.15;7.25;;;;;;;20.92;70.00;100776.81;;;;-51
2021/07/20 08:30:25;;;;;;;8.39;7.36;;;;;;;20.92;70.14;100772.36;;;;-51
2021/07/20 08:33:25;;;;;;;12.71;7.43;;;;;;;20.94;70.26;100775.69;;;;-50
2021/07/20 08:36:25;;;;;;;8.49;7.39;;;;;;;20.95;70.28;100779.03;;;;-49
2021/07/20 08:39:25;;;;;;;8.37;7.41;;;;;;;20.98;70.29;100777.20;;;;-48
2021/07/20 08:42:25;;;;;;;7.83;7.03;;;;;;;20.99;70.27;100776.13;;;;-62
2021/07/20 08:45:25;;;;;;;9.35;7.09;;;;;;;21.02;70.33;100780.70;;;;-56
2021/07/20 08:48:25;;;;;;;8.67;7.15;;;;;;;21.04;70.43;100778.42;;;;-59
2021/07/20 08:51:25;;;;;;;8.45;7.11;;;;;;;21.06;70.49;100775.67;;;;-63
2021/07/20 08:54:25;;;;;;;8.90;6.79;;;;;;;21.06;70.46;100777.78;;;;-67
2021/07/20 08:57:25;;;;;;;9.47;7.05;;;;;;;21.09;70.58;100775.20;;;;-67
2021/07/20 09:00:25;;;;;;;8.51;7.19;;;;;;;21.10;70.57;100779.52;;;;-67
2021/07/20 09:03:29;;;;;;;8.91;6.84;;;;;;;21.12;70.50;100780.25;;;;-62
2021/07/20 09:06:25;;;;;;;8.98;7.19;;;;;;;21.14;70.56;100780.84;;;;-59
2021/07/20 09:09:25;;;;;;;10.67;7.32;;;;;;;21.15;70.53;100776.54;;;;-56
2021/07/20 09:12:25;;;;;;;7.75;6.95;;;;;;;21.16;70.53;100775.22;;;;-62
2021/07/20 09:15:26;;;;;;;7.93;7.05;;;;;;;21.17;70.35;100773.37;;;;-62
2021/07/20 09:18:25;;;;;;;9.01;6.99;;;;;;;21.17;70.46;100775.16;;;;-62
2021/07/20 09:21:25;;;;;;;10.89;7.03;;;;;;;21.18;70.42;100772.70;;;;-58
2021/07/20 09:24:25;;;;;;;7.89;7.04;;;;;;;21.19;70.35;100770.36;;;;-58
2021/07/20 09:27:25;;;;;;;7.51;6.65;;;;;;;21.19;70.34;100767.42;;;;-59
2021/07/20 09:30:25;;;;;;;9.54;7.03;;;;;;;21.20;70.33;100770.02;;;;-58
2021/07/20 09:33:25;;;;;;;10.51;7.01;;;;;;;21.22;70.44;100772.16;;;;-56
2021/07/20 09:36:25;;;;;;;10.82;7.33;;;;;;;21.22;69.93;100766.30;;;;-66
2021/07/20 09:39:25;;;;;;;14.43;7.41;;;;;;;21.23;70.10;100763.67;;;;-59
2021/07/20 09:42:25;;;;;;;10.17;7.29;;;;;;;21.23;70.25;100765.25;;;;-62
2021/07/20 09:45:25;;;;;;;8.88;7.04;;;;;;;21.23;70.22;100769.23;;;;-62
2021/07/20 09:48:26;;;;;;;8.23;6.86;;;;;;;21.23;70.22;100761.66;;;;-62
2021/07/20 09:51:25;;;;;;;10.41;6.61;;;;;;;21.23;70.08;100767.61;;;;-63
2021/07/20 09:54:25;;;;;;;11.45;7.23;;;;;;;21.24;70.14;100763.93;;;;-62
2021/07/20 09:57:25;;;;;;;8.75;6.56;;;;;;;21.24;70.07;100766.88;;;;-62
2021/07/20 10:00:25;;;;;;;9.31;6.65;;;;;;;21.24;70.14;100761.89;;;;-55
2021/07/20 10:03:25;;;;;;;11.09;7.05;;;;;;;21.23;70.19;100757.02;;;;-54
2021/07/20 10:06:25;;;;;;;7.37;6.55;;;;;;;21.24;70.17;100751.63;;;;-55
2021/07/20 10:09:25;;;;;;;11.59;7.07;;;;;;;21.24;70.10;100749.50;;;;-54
2021/07/20 10:12:25;;;;;;;8.37;6.93;;;;;;;21.24;70.07;100746.58;;;;-55
2021/07/20 10:15:25;;;;;;;9.09;7.15;;;;;;;21.24;70.10;100747.47;;;;-55
2021/07/20 10:18:25;;;;;;;7.93;6.71;;;;;;;21.25;70.08;100746.75;;;;-55
2021/07/20 10:21:25;;;;;;;10.25;6.57;;;;;;;21.25;70.01;100740.37;;;;-55
2021/07/20 10:24:25;;;;;;;10.94;6.99;;;;;;;21.25;70.05;100743.38;;;;-54
2021/07/20 10:27:25;;;;;;;9.15;7.13;;;;;;;21.26;70.03;100745.93;;;;-54
2021/07/20 10:30:25;;;;;;;7.73;6.69;;;;;;;21.25;70.06;100741.45;;;;-55
2021/07/20 10:33:25;;;;;;;8.27;6.67;;;;;;;21.25;70.07;100740.31;;;;-54
2021/07/20 10:36:25;;;;;;;8.67;6.33;;;;;;;21.26;70.07;100739.90;;;;-54
2021/07/20 10:39:25;;;;;;;8.42;6.81;;;;;;;21.26;70.02;100738.27;;;;-54
2021/07/20 10:42:25;;;;;;;9.57;6.69;;;;;;;21.26;69.96;100741.28;;;;-54
2021/07/20 10:45:26;;;;;;;10.10;6.61;;;;;;;21.25;69.94;100735.58;;;;-53
2021/07/20 10:48:25;;;;;;;7.65;6.13;;;;;;;21.26;70.06;100739.33;;;;-53
2021/07/20 10:51:25;;;;;;;7.76;6.17;;;;;;;21.26;70.11;100734.34;;;;-53
2021/07/20 10:54:25;;;;;;;7.37;6.19;;;;;;;21.26;70.00;100729.21;;;;-54
2021/07/20 10:57:25;;;;;;;7.40;6.25;;;;;;;21.26;70.03;100738.27;;;;-54
2021/07/20 11:00:25;;;;;;;7.85;6.61;;;;;;;21.26;69.93;100740.62;;;;-54
2021/07/20 11:03:25;;;;;;;8.25;6.43;;;;;;;21.26;69.95;100733.45;;;;-54
2021/07/20 11:06:25;;;;;;;7.80;6.35;;;;;;;21.27;70.02;100733.20;;;;-54
2021/07/20 11:09:25;;;;;;;7.00;6.30;;;;;;;21.26;70.06;100727.50;;;;-55
2021/07/20 11:12:25;;;;;;;7.63;6.29;;;;;;;21.26;69.93;100724.81;;;;-54
2021/07/20 11:15:25;;;;;;;7.87;5.96;;;;;;;21.26;69.99;100724.89;;;;-55
2021/07/20 11:18:25;;;;;;;7.97;6.47;;;;;;;21.26;70.02;100724.48;;;;-54
2021/07/20 11:21:25;;;;;;;7.76;6.05;;;;;;;21.26;69.98;100715.68;;;;-56
2021/07/20 11:24:25;;;;;;;8.79;6.33;;;;;;;21.26;69.99;100717.39;;;;-55
2021/07/20 11:27:25;;;;;;;6.80;6.08;;;;;;;21.27;69.99;100723.83;;;;-55
2021/07/20 11:30:25;;;;;;;8.12;6.21;;;;;;;21.27;69.99;100718.61;;;;-56
2021/07/20 11:33:25;;;;;;;7.12;5.99;;;;;;;21.26;70.04;100711.28;;;;-55
2021/07/20 11:36:25;;;;;;;6.69;5.81;;;;;;;21.26;69.92;100702.15;;;;-56
2021/07/20 11:39:25;;;;;;;6.91;6.09;;;;;;;21.27;69.96;100708.50;;;;-56
2021/07/20 11:42:25;;;;;;;6.59;5.90;;;;;;;21.27;69.97;100708.75;;;;-56
2021/07/20 11:45:25;;;;;;;7.12;6.12;;;;;;;21.27;69.99;100709.89;;;;-56
2021/07/20 11:48:25;;;;;;;6.57;5.81;;;;;;;21.26;69.99;100700.84;;;;-56
2021/07/20 11:51:25;;;;;;;6.89;5.84;;;;;;;21.26;69.96;100699.87;;;;-55
2021/07/20 11:54:25;;;;;;;8.02;6.12;;;;;;;21.26;70.11;100700.68;;;;-52
2021/07/20 11:57:25;;;;;;;8.05;6.10;;;;;;;21.28;69.97;100700.20;;;;-57
2021/07/20 12:02:25;;;;;;;7.69;6.15;;;;;;;21.29;69.95;100694.44;;;;-54
2021/07/20 12:05:25;;;;;;;6.61;5.89;;;;;;;21.30;70.01;100693.77;;;;-54
2021/07/20 12:08:25;;;;;;;7.61;6.09;;;;;;;21.30;70.02;100695.97;;;;-55
2021/07/20 12:11:25;;;;;;;10.11;6.06;;;;;;;21.31;70.02;100695.06;;;;-53
2021/07/20 12:14:25;;;;;;;7.05;6.28;;;;;;;21.30;69.97;100690.43;;;;-53
2021/07/20 12:17:25;;;;;;;6.81;5.93;;;;;;;21.30;69.89;100691.73;;;;-63
2021/07/20 12:20:25;;;;;;;6.86;5.73;;;;;;;21.31;69.98;100689.03;;;;-63
2021/07/20 12:23:25;;;;;;;8.12;6.03;;;;;;;21.31;69.87;100689.27;;;;-65
2021/07/20 12:26:25;;;;;;;8.24;6.18;;;;;;;21.31;69.93;100691.88;;;;-64
2021/07/20 12:29:25;;;;;;;8.49;6.44;;;;;;;21.30;69.99;100688.80;;;;-63
2021/07/20 12:32:26;;;;;;;9.31;6.03;;;;;;;21.33;69.93;100690.83;;;;-64
2021/07/20 12:35:25;;;;;;;8.39;6.34;;;;;;;21.34;69.89;100683.76;;;;-64
2021/07/20 12:38:26;;;;;;;7.08;5.71;;;;;;;21.34;69.91;100681.55;;;;-60
2021/07/20 12:41:25;;;;;;;7.29;5.95;;;;;;;21.36;70.00;100679.85;;;;-52
2021/07/20 12:44:31;;;;;;;7.46;6.04;;;;;;;21.37;69.87;100680.48;;;;-52
2021/07/20 12:47:25;;;;;;;7.88;6.49;;;;;;;21.38;69.92;100685.39;;;;-50
2021/07/20 12:50:25;;;;;;;8.75;5.97;;;;;;;21.38;69.94;100681.72;;;;-50
2021/07/20 12:53:25;;;;;;;6.97;5.85;;;;;;;21.40;69.90;100683.28;;;;-57
2021/07/20 12:56:25;;;;;;;9.40;6.08;;;;;;;21.40;69.96;100681.57;;;;-50
2021/07/20 12:59:25;;;;;;;15.75;6.25;;;;;;;21.42;70.06;100688.05;;;;-52
2021/07/20 13:02:25;;;;;;;9.19;6.61;;;;;;;21.43;69.80;100686.07;;;;-50
2021/07/20 13:05:25;;;;;;;10.46;6.21;;;;;;;21.44;70.00;100688.63;;;;-52
2021/07/20 13:08:25;;;;;;;9.84;6.21;;;;;;;21.45;69.81;100683.97;;;;-47
2021/07/20 13:11:25;;;;;;;7.50;5.91;;;;;;;21.47;69.61;100685.52;;;;-51
2021/07/20 13:14:25;;;;;;;10.75;6.18;;;;;;;21.47;69.84;100685.77;;;;-51
2021/07/20 13:17:25;;;;;;;8.43;6.43;;;;;;;21.48;70.02;100685.53;;;;-50
2021/07/20 13:20:25;;;;;;;7.21;6.06;;;;;;;21.49;70.00;100684.53;;;;-50
2021/07/20 13:23:25;;;;;;;8.21;6.32;;;;;;;21.49;70.03;100681.27;;;;-51
2021/07/20 13:26:25;;;;;;;8.74;6.37;;;;;;;21.51;70.00;100676.06;;;;-48
2021/07/20 13:29:25;;;;;;;7.81;6.25;;;;;;;21.52;70.11;100677.47;;;;-49
2021/07/20 13:32:25;;;;;;;7.97;5.89;;;;;;;21.53;70.14;100674.93;;;;-54
2021/07/20 13:35:25;;;;;;;10.99;6.13;;;;;;;21.53;70.09;100675.08;;;;-51
2021/07/20 13:38:25;;;;;;;7.59;5.99;;;;;;;21.54;70.19;100678.26;;;;-56
2021/07/20 13:41:25;;;;;;;10.49;6.20;;;;;;;21.54;70.04;100678.61;;;;-52
2021/07/20 13:44:25;;;;;;;8.72;5.81;;;;;;;21.56;70.06;100679.75;;;;-52
2021/07/20 13:47:25;;;;;;;6.90;6.05;;;;;;;21.57;70.13;100670.78;;;;-51
2021/07/20 13:50:25;;;;;;;7.45;5.99;;;;;;;21.56;70.16;100673.64;;;;-50
2021/07/20 13:53:25;;;;;;;6.96;5.72;;;;;;;21.57;70.08;100672.73;;;;-50
2021/07/20 13:56:25;;;;;;;7.37;5.73;;;;;;;21.58;70.06;100676.71;;;;-50
2021/07/20 13:59:27;;;;;;;9.81;6.27;;;;;;;21.58;69.92;100678.45;;;;-58
2021/07/20 14:02:25;;;;;;;9.21;5.91;;;;;;;21.58;70.01;100678.45;;;;-57
2021/07/20 14:05:25;;;;;;;8.18;5.71;;;;;;;21.57;70.00;100678.84;;;;-58
2021/07/20 14:08:25;;;;;;;7.69;5.93;;;;;;;21.57;70.01;100676.08;;;;-58
2021/07/20 14:11:25;;;;;;;7.69;5.71;;;;;;;21.56;70.14;100674.75;;;;-56
2021/07/20 14:14:25;;;;;;;7.99;5.87;;;;;;;21.56;70.00;100676.38;;;;-57
2021/07/20 14:17:25;;;;;;;6.53;5.76;;;;;;;21.54;70.08;100672.16;;;;-57
2021/07/20 14:20:25;;;;;;;6.10;5.33;;;;;;;21.55;70.03;100673.46;;;;-58
2021/07/20 14:23:25;;;;;;;7.03;5.53;;;;;;;21.54;70.09;100670.53;;;;-56
2021/07/20 14:26:25;;;;;;;7.19;5.73;;;;;;;21.54;70.01;100667.41;;;;-56
2021/07/20 14:29:26;;;;;;;6.62;5.95;;;;;;;21.54;70.03;100666.54;;;;-57
2021/07/20 15:09:59;;;;;;;6.62;5.37;;;;;;;21.73;69.30;100648.11;;;;-65
2021/07/20 15:12:59;;;;;;;7.35;6.11;;;;;;;21.73;69.29;100644.11;;;;-63
2021/07/20 15:15:59;;;;;;;6.59;5.30;;;;;;;21.74;69.31;100643.28;;;;-63
2021/07/20 15:18:59;;;;;;;6.72;5.65;;;;;;;21.74;69.41;100642.55;;;;-60
2021/07/20 15:21:59;;;;;;;119.05;110.08;;;;;;;21.73;69.48;100642.48;;;;-62
2021/07/20 15:24:59;;;;;;;60.09;55.02;;;;;;;21.73;69.45;100645.42;;;;-56
2021/07/20 15:27:59;;;;;;;10.99;9.73;;;;;;;21.72;69.59;100645.57;;;;-55
2021/07/20 15:30:59;;;;;;;11.99;8.33;;;;;;;21.71;69.87;100645.99;;;;-58
2021/07/20 15:33:59;;;;;;;131.33;121.29;;;;;;;21.69;69.77;100643.86;;;;-57
2021/07/20 15:36:59;;;;;;;70.97;65.57;;;;;;;21.68;69.88;100648.59;;;;-58
2021/07/20 15:39:59;;;;;;;50.77;46.74;;;;;;;21.67;69.87;100646.08;;;;-59
2021/07/20 15:42:59;;;;;;;49.87;45.91;;;;;;;21.65;69.93;100644.84;;;;-58
2021/07/20 15:46:00;;;;;;;104.86;96.83;;;;;;;21.64;69.83;100648.94;;;;-58
2021/07/20 15:48:59;;;;;;;243.23;224.67;;;;;;;21.62;69.91;100647.95;;;;-59
2021/07/20 15:51:59;;;;;;;204.67;188.86;;;;;;;21.62;70.00;100648.98;;;;-59
2021/07/20 15:54:59;;;;;;;210.27;193.99;;;;;;;21.61;69.90;100652.10;;;;-58
2021/07/20 15:58:01;;;;;;;235.43;217.29;;;;;;;21.59;69.99;100654.13;;;;-58
2021/07/20 16:00:59;;;;;;;215.97;199.20;;;;;;;21.59;69.91;100653.73;;;;-59
2021/07/20 16:04:00;;;;;;;197.07;182.03;;;;;;;21.58;69.97;100649.91;;;;-59
2021/07/20 16:06:59;;;;;;;187.26;172.55;;;;;;;21.57;69.95;100649.16;;;;-58
2021/07/20 16:09:59;;;;;;;215.31;198.73;;;;;;;21.57;69.93;100651.36;;;;-58
2021/07/20 16:13:00;;;;;;;212.34;195.29;;;;;;;21.56;70.02;100651.27;;;;-58
2021/07/20 16:15:59;;;;;;;200.22;184.91;;;;;;;21.56;69.94;100645.34;;;;-59
2021/07/20 16:18:59;;;;;;;177.66;164.01;;;;;;;21.55;69.95;100645.08;;;;-58
2021/07/20 16:21:59;;;;;;;129.17;119.25;;;;;;;21.55;70.00;100646.80;;;;-59
2021/07/20 16:24:59;;;;;;;134.09;124.04;;;;;;;21.54;70.02;100650.13;;;;-58
2021/07/20 16:27:59;;;;;;;153.32;141.65;;;;;;;21.53;69.95;100647.19;;;;-58
2021/07/20 16:31:00;;;;;;;155.45;143.54;;;;;;;21.53;69.95;100644.34;;;;-58
2021/07/20 16:33:59;;;;;;;111.97;103.63;;;;;;;21.53;70.00;100648.42;;;;-58
2021/07/20 16:36:59;;;;;;;87.99;81.35;;;;;;;21.53;69.99;100648.09;;;;-58
2021/07/20 16:39:59;;;;;;;125.53;116.03;;;;;;;21.52;70.04;100647.70;;;;-61
2021/07/20 16:42:59;;;;;;;122.42;113.12;;;;;;;21.53;69.99;100649.80;;;;-53
2021/07/20 16:45:59;;;;;;;141.38;130.56;;;;;;;21.54;69.97;100650.13;;;;-58
2021/07/20 16:49:00;;;;;;;127.33;117.59;;;;;;;21.55;69.98;100648.66;;;;-61
2021/07/20 16:51:59;;;;;;;121.47;112.35;;;;;;;21.56;69.95;100652.33;;;;-51
2021/07/20 16:54:59;;;;;;;138.42;127.87;;;;;;;21.56;70.00;100654.88;;;;-59
2021/07/20 16:57:59;;;;;;;125.60;116.21;;;;;;;21.58;69.94;100651.52;;;;-60
2021/07/20 17:00:59;;;;;;;139.47;128.79;;;;;;;21.59;69.99;100652.84;;;;-63
2021/07/20 17:03:59;;;;;;;215.72;199.15;;;;;;;21.59;69.81;100653.56;;;;-59
2021/07/20 17:07:00;;;;;;;114.73;106.14;;;;;;;21.60;69.85;100658.13;;;;-58
2021/07/20 17:09:59;;;;;;;158.13;146.10;;;;;;;21.61;69.90;100653.41;;;;-60
2021/07/20 17:12:59;;;;;;;188.24;173.80;;;;;;;21.62;69.76;100654.20;;;;-53